createdAt,value
2023-06-16T00:00:37.491Z,33.87
2023-06-16T00:03:04.230Z,33.57
2023-06-16T00:05:31.238Z,32.73
2023-06-16T00:08:02.034Z,31.97
2023-06-16T00:10:28.969Z,30.43
2023-06-16T00:12:55.510Z,30.53
2023-06-16T00:15:22.119Z,31.97
2023-06-16T00:17:51.088Z,30.17
2023-06-16T00:20:22.512Z,33.93
2023-06-16T00:22:49.610Z,32.13
2023-06-16T00:25:17.856Z,29.53
2023-06-16T00:27:44.514Z,31.80
2023-06-16T00:30:11.542Z,30.90
2023-06-16T00:32:38.187Z,32.27
2023-06-16T00:35:05.039Z,32.20
2023-06-16T00:37:31.551Z,31.50
2023-06-16T00:39:58.064Z,32.60
2023-06-16T00:42:24.595Z,32.30
2023-06-16T00:44:51.088Z,34.43
2023-06-16T00:47:17.768Z,33.30
2023-06-16T00:49:44.438Z,32.97
2023-06-16T00:52:14.292Z,32.00
2023-06-16T00:54:40.915Z,31.50
2023-06-16T00:57:08.013Z,34.93
2023-06-16T00:59:34.841Z,33.23
2023-06-16T01:02:01.887Z,33.67
2023-06-16T01:04:29.456Z,33.53
2023-06-16T01:07:00.524Z,31.57
2023-06-16T01:09:54.351Z,34.20
2023-06-16T01:12:39.562Z,31.30
2023-06-16T01:15:10.375Z,33.87
2023-06-16T01:17:44.857Z,31.77
2023-06-16T01:20:16.198Z,31.30
2023-06-16T01:23:07.704Z,33.47
2023-06-16T01:25:39.442Z,35.37
2023-06-16T01:28:08.909Z,33.50
2023-06-16T01:30:36.411Z,33.47
2023-06-16T01:33:03.839Z,34.63
2023-06-16T01:35:31.344Z,33.40
2023-06-16T01:37:58.369Z,34.00
2023-06-16T01:40:25.468Z,35.03
2023-06-16T01:42:52.883Z,34.40
2023-06-16T01:45:20.170Z,32.87
2023-06-16T01:47:47.064Z,35.00
2023-06-16T01:50:14.200Z,38.70
2023-06-16T01:52:40.837Z,34.23
2023-06-16T01:55:08.016Z,35.30
2023-06-16T01:57:35.585Z,40.70
2023-06-16T02:00:18.539Z,41.43
2023-06-16T02:02:55.549Z,36.30
2023-06-16T02:05:25.050Z,46.30
2023-06-16T02:07:53.875Z,46.70
2023-06-16T02:10:22.201Z,50.40
2023-06-16T02:12:49.670Z,46.93
2023-06-16T02:15:20.234Z,50.33
2023-06-16T02:17:47.349Z,55.93
2023-06-16T02:20:13.912Z,55.03
2023-06-16T02:22:40.688Z,59.23
2023-06-16T02:25:07.716Z,62.63
2023-06-16T02:27:34.278Z,59.67
2023-06-16T02:30:00.879Z,60.87
2023-06-16T02:32:28.122Z,63.30
2023-06-16T02:34:57.259Z,51.43
2023-06-16T02:37:26.561Z,54.90
2023-06-16T02:39:53.081Z,52.50
2023-06-16T02:42:19.600Z,48.63
2023-06-16T02:44:46.151Z,45.07
2023-06-16T02:47:12.709Z,41.70
2023-06-16T02:49:43.926Z,41.30
2023-06-16T02:52:13.657Z,36.50
2023-06-16T02:54:41.460Z,34.00
2023-06-16T02:57:08.638Z,33.93
2023-06-16T02:59:35.874Z,34.83
2023-06-16T03:02:02.574Z,33.37
2023-06-16T03:04:29.180Z,32.40
2023-06-16T03:06:58.993Z,32.10
2023-06-16T03:09:26.458Z,30.93
2023-06-16T03:11:55.525Z,32.43
2023-06-16T03:14:22.679Z,29.70
2023-06-16T03:16:49.578Z,35.10
2023-06-16T03:19:16.864Z,33.53
2023-06-16T03:21:44.157Z,34.07
2023-06-16T03:24:11.001Z,36.47
2023-06-16T03:26:38.497Z,37.30
2023-06-16T03:29:06.675Z,38.90
2023-06-16T03:31:33.183Z,37.53
2023-06-16T03:34:07.392Z,44.90
2023-06-16T03:36:42.114Z,37.60
2023-06-16T03:39:08.683Z,39.13
2023-06-16T03:41:35.787Z,39.30
2023-06-16T03:44:05.005Z,41.47
2023-06-16T03:46:34.411Z,39.77
2023-06-16T03:49:01.193Z,44.03
2023-06-16T03:51:27.732Z,39.17
2023-06-16T03:53:54.258Z,41.40
2023-06-16T03:56:21.060Z,44.60
2023-06-16T03:58:49.672Z,45.33
2023-06-16T04:01:17.118Z,42.57
2023-06-16T04:03:43.735Z,35.67
2023-06-16T04:06:10.560Z,37.73
2023-06-16T04:08:37.780Z,40.87
2023-06-16T04:11:04.532Z,40.90
2023-06-16T04:13:31.968Z,43.50
2023-06-16T04:15:58.489Z,43.70
2023-06-16T04:18:25.236Z,38.40
2023-06-16T04:20:52.118Z,39.93
2023-06-16T04:23:18.962Z,41.97
2023-06-16T04:25:46.112Z,46.83
2023-06-16T04:28:15.385Z,39.33
2023-06-16T04:30:43.288Z,43.67
2023-06-16T04:33:09.893Z,50.20
2023-06-16T04:35:36.685Z,44.93
2023-06-16T04:38:04.233Z,42.83
2023-06-16T04:40:33.644Z,38.13
2023-06-16T04:43:00.156Z,42.77
2023-06-16T04:45:27.149Z,43.60
2023-06-16T04:47:53.774Z,38.03
2023-06-16T04:50:20.818Z,36.10
2023-06-16T04:52:51.140Z,39.13
2023-06-16T04:55:18.117Z,41.27
2023-06-16T04:57:45.102Z,39.10
2023-06-16T05:00:12.122Z,38.70
2023-06-16T05:02:38.922Z,39.57
2023-06-16T05:05:06.042Z,36.17
2023-06-16T05:07:32.811Z,39.67
2023-06-16T05:09:59.590Z,35.17
2023-06-16T05:12:27.225Z,43.27
2023-06-16T05:14:53.810Z,45.13
2023-06-16T05:17:20.756Z,45.17
2023-06-16T05:19:47.320Z,45.23
2023-06-16T05:22:14.516Z,44.33
2023-06-16T05:24:41.132Z,44.33
2023-06-16T05:27:07.748Z,46.43
2023-06-16T05:29:34.247Z,46.30
2023-06-16T05:32:00.823Z,45.47
2023-06-16T05:34:27.409Z,43.73
2023-06-16T05:36:53.918Z,45.23
2023-06-16T05:39:20.686Z,45.40
2023-06-16T05:41:50.289Z,46.27
2023-06-16T05:44:16.779Z,45.50
2023-06-16T05:46:43.299Z,47.30
2023-06-16T05:49:09.840Z,45.50
2023-06-16T05:51:36.539Z,45.40
2023-06-16T05:54:03.098Z,45.93
2023-06-16T05:56:29.686Z,48.67
2023-06-16T05:58:56.400Z,52.50
2023-06-16T06:01:22.945Z,52.87
2023-06-16T06:03:49.744Z,53.10
2023-06-16T06:06:16.601Z,53.37
2023-06-16T06:08:43.138Z,50.03
2023-06-16T06:11:09.649Z,48.70
2023-06-16T06:13:36.195Z,53.37
2023-06-16T06:16:03.335Z,55.17
2023-06-16T06:18:30.093Z,48.63
2023-06-16T06:20:56.660Z,55.97
2023-06-16T06:23:23.239Z,56.27
2023-06-16T06:25:49.997Z,47.63
2023-06-16T06:28:16.651Z,48.17
2023-06-16T06:30:43.195Z,50.43
2023-06-16T06:33:09.798Z,50.53
2023-06-16T06:35:36.600Z,51.80
2023-06-16T06:38:04.356Z,55.47
2023-06-16T06:40:33.156Z,49.70
2023-06-16T06:43:03.962Z,53.63
2023-06-16T06:45:30.568Z,52.57
2023-06-16T06:47:57.284Z,56.67
2023-06-16T06:50:23.894Z,57.93
2023-06-16T06:52:50.642Z,54.87
2023-06-16T06:55:17.288Z,56.60
2023-06-16T06:57:43.845Z,65.37
2023-06-16T07:00:11.365Z,56.83
2023-06-16T07:02:38.094Z,57.40
2023-06-16T07:05:05.045Z,55.47
2023-06-16T07:07:31.610Z,60.03
2023-06-16T07:09:58.101Z,53.63
2023-06-16T07:12:24.614Z,60.10
2023-06-16T07:14:51.119Z,59.67
2023-06-16T07:17:17.676Z,69.77
2023-06-16T07:19:44.312Z,67.93
2023-06-16T07:22:11.116Z,74.33
2023-06-16T07:24:37.687Z,76.43
2023-06-16T07:27:04.705Z,72.67
2023-06-16T07:29:31.389Z,71.37
2023-06-16T07:31:58.036Z,75.70
2023-06-16T07:34:24.750Z,76.83
2023-06-16T07:36:51.395Z,73.80
2023-06-16T07:39:18.516Z,70.57
2023-06-16T07:41:45.268Z,69.47
2023-06-16T07:44:12.386Z,63.07
2023-06-16T07:46:39.791Z,59.53
2023-06-16T07:49:06.521Z,63.20
2023-06-16T07:51:33.060Z,62.40
2023-06-16T07:53:59.715Z,60.90
2023-06-16T07:56:26.263Z,59.00
2023-06-16T07:58:52.769Z,68.90
2023-06-16T08:01:19.303Z,63.13
2023-06-16T08:03:48.192Z,54.30
2023-06-16T08:06:16.580Z,61.60
2023-06-16T08:08:43.257Z,59.60
2023-06-16T08:11:09.855Z,61.13
2023-06-16T08:13:36.428Z,62.00
2023-06-16T08:16:03.139Z,58.00
2023-06-16T08:18:29.737Z,57.67
2023-06-16T08:20:56.313Z,54.47
2023-06-16T08:23:22.861Z,57.87
2023-06-16T08:25:50.653Z,58.13
2023-06-16T08:28:17.216Z,54.03
2023-06-16T08:30:43.799Z,60.57
2023-06-16T08:33:11.074Z,59.63
2023-06-16T08:35:37.663Z,68.37
2023-06-16T08:38:04.275Z,68.30
2023-06-16T08:40:31.773Z,78.20
2023-06-16T08:42:59.469Z,79.30
2023-06-16T08:45:26.940Z,69.83
2023-06-16T08:47:53.503Z,59.10
2023-06-16T08:50:24.035Z,56.70
2023-06-16T08:52:54.205Z,53.53
2023-06-16T08:55:21.552Z,48.20
2023-06-16T08:57:49.648Z,42.83
2023-06-16T09:00:17.369Z,23.40
2023-06-16T09:02:45.362Z,24.97
2023-06-16T09:05:13.093Z,23.27
2023-06-16T09:07:40.758Z,25.30
2023-06-16T09:10:08.892Z,23.67
2023-06-16T09:12:36.422Z,24.53
2023-06-16T09:15:07.768Z,24.97
2023-06-16T09:17:34.833Z,27.40
2023-06-16T09:20:03.001Z,36.50
2023-06-16T09:22:30.209Z,32.97
2023-06-16T09:24:58.163Z,39.67
2023-06-16T09:27:42.413Z,30.63
2023-06-16T09:30:10.014Z,31.10
2023-06-16T09:32:40.387Z,27.07
2023-06-16T09:35:24.313Z,29.77
2023-06-16T09:37:56.499Z,32.00
2023-06-16T09:40:27.098Z,30.13
2023-06-16T09:42:53.674Z,40.17
2023-06-16T09:45:23.035Z,33.20
2023-06-16T09:47:50.467Z,31.43
2023-06-16T09:50:18.698Z,33.43
2023-06-16T09:52:47.732Z,44.00
2023-06-16T09:55:14.650Z,34.03
2023-06-16T09:57:46.453Z,38.87
2023-06-16T10:00:18.591Z,49.93
2023-06-16T10:02:47.353Z,42.67
2023-06-16T10:05:17.230Z,49.37
2023-06-16T10:07:45.982Z,44.23
2023-06-16T10:10:12.930Z,52.40
2023-06-16T10:12:50.703Z,79.00
2023-06-16T10:15:21.648Z,38.73
2023-06-16T10:17:48.780Z,59.93
2023-06-16T10:20:17.498Z,53.63
2023-06-16T10:22:44.687Z,44.37
2023-06-16T10:25:11.727Z,42.93
2023-06-16T10:27:40.736Z,53.67
2023-06-16T10:30:10.454Z,52.80
2023-06-16T10:32:38.646Z,64.80
2023-06-16T10:35:08.646Z,54.07
2023-06-16T10:37:35.184Z,52.47
2023-06-16T10:40:14.117Z,50.13
2023-06-16T10:42:41.495Z,58.50
2023-06-16T10:45:28.442Z,57.33
2023-06-16T10:47:57.231Z,55.07
2023-06-16T10:50:40.067Z,57.53
2023-06-16T10:53:19.688Z,57.53
2023-06-16T10:55:46.759Z,53.07
2023-06-16T10:58:22.401Z,56.50
2023-06-16T11:01:06.808Z,44.30
2023-06-16T11:03:38.844Z,43.10
2023-06-16T11:06:06.720Z,39.47
2023-06-16T11:08:49.288Z,34.57
2023-06-16T11:11:16.830Z,43.13
2023-06-16T11:13:43.545Z,31.47
2023-06-16T11:16:10.130Z,38.53
2023-06-16T11:18:36.906Z,42.80
2023-06-16T11:21:06.259Z,32.40
2023-06-16T11:23:33.248Z,41.47
2023-06-16T11:26:27.775Z,53.57
2023-06-16T11:28:54.284Z,39.13
2023-06-16T11:31:22.231Z,38.77
2023-06-16T11:33:48.987Z,59.10
2023-06-16T11:36:20.940Z,54.80
2023-06-16T11:38:49.628Z,42.67
2023-06-16T11:41:24.196Z,48.00
2023-06-16T11:43:52.284Z,48.27
2023-06-16T11:46:29.894Z,71.30
2023-06-16T11:48:56.578Z,46.70
2023-06-16T11:51:24.565Z,57.70
2023-06-16T11:53:52.093Z,121.13
2023-06-16T11:56:18.740Z,29.57
2023-06-16T11:58:46.998Z,19.97
2023-06-16T12:01:16.984Z,37.17
2023-06-16T12:04:03.602Z,20.23
2023-06-16T12:06:33.198Z,31.27
2023-06-16T12:09:00.970Z,33.43
2023-06-16T12:11:29.675Z,34.03
2023-06-16T12:13:58.231Z,53.40
2023-06-16T12:16:25.211Z,28.83
2023-06-16T12:18:52.537Z,45.27
2023-06-16T12:21:29.003Z,60.63
2023-06-16T12:23:58.427Z,38.87
2023-06-16T12:26:36.581Z,33.73
2023-06-16T12:29:09.633Z,31.80
2023-06-16T12:31:36.473Z,52.20
2023-06-16T12:34:03.327Z,39.27
2023-06-16T12:36:29.930Z,33.10
2023-06-16T12:38:57.381Z,33.47
2023-06-16T12:41:27.418Z,55.40
2023-06-16T12:43:54.015Z,42.30
2023-06-16T12:46:21.667Z,32.50
2023-06-16T12:48:48.252Z,24.73
2023-06-16T12:51:15.160Z,32.07
2023-06-16T12:53:46.959Z,33.83
2023-06-16T12:56:15.737Z,37.63
2023-06-16T12:58:42.280Z,44.77
2023-06-16T13:01:11.813Z,48.20
2023-06-16T13:03:42.279Z,53.57
2023-06-16T13:06:08.937Z,31.30
2023-06-16T13:08:35.762Z,47.03
2023-06-16T13:11:02.316Z,37.43
2023-06-16T13:13:28.829Z,55.00
2023-06-16T13:15:55.915Z,67.77
2023-06-16T13:18:22.514Z,62.93
2023-06-16T13:20:49.623Z,103.43
2023-06-16T13:23:16.160Z,95.67
2023-06-16T13:25:42.711Z,53.83
2023-06-16T13:28:09.320Z,81.73
2023-06-16T13:30:36.286Z,77.63
2023-06-16T13:33:02.906Z,77.23
2023-06-16T13:35:29.453Z,132.13
2023-06-16T13:37:56.283Z,85.13
2023-06-16T13:40:22.999Z,89.57
2023-06-16T13:42:49.598Z,87.13
2023-06-16T13:45:16.111Z,207.80
2023-06-16T13:47:42.702Z,188.00
2023-06-16T13:50:09.943Z,152.90
2023-06-16T13:52:37.702Z,114.47
2023-06-16T13:55:04.872Z,196.87
2023-06-16T13:57:31.500Z,123.30
2023-06-16T14:00:00.108Z,109.60
2023-06-16T14:02:27.041Z,113.93
2023-06-16T14:04:53.741Z,93.93
2023-06-16T14:07:20.442Z,105.27
2023-06-16T14:09:47.086Z,104.17
2023-06-16T14:12:13.649Z,90.50
2023-06-16T14:14:40.334Z,95.60
2023-06-16T14:17:06.955Z,156.70
2023-06-16T14:19:35.613Z,95.73
2023-06-16T14:22:02.440Z,98.10
2023-06-16T14:24:30.278Z,83.23
2023-06-16T14:26:56.870Z,75.33
2023-06-16T14:29:23.346Z,74.80
2023-06-16T14:31:49.860Z,70.27
2023-06-16T14:34:16.374Z,62.10
2023-06-16T14:36:42.944Z,82.37
2023-06-16T14:39:10.437Z,58.07
2023-06-16T14:41:38.250Z,61.33
2023-06-16T14:44:04.971Z,58.00
2023-06-16T14:46:31.633Z,66.43
2023-06-16T14:48:58.165Z,47.40
2023-06-16T14:51:24.675Z,74.67
2023-06-16T14:53:51.170Z,71.67
2023-06-16T14:56:18.754Z,49.10
2023-06-16T14:58:45.296Z,41.37
2023-06-16T15:01:11.824Z,41.63
2023-06-16T15:03:38.497Z,69.90
2023-06-16T15:06:05.160Z,31.47
2023-06-16T15:08:31.747Z,29.23
2023-06-16T15:10:58.284Z,33.40
2023-06-16T15:13:24.930Z,32.87
2023-06-16T15:15:51.523Z,31.37
2023-06-16T15:18:18.154Z,40.30
2023-06-16T15:20:44.706Z,49.80
2023-06-16T15:23:11.465Z,36.60
2023-06-16T15:25:38.030Z,57.57
2023-06-16T15:28:12.256Z,27.73
2023-06-16T15:30:39.157Z,30.33
2023-06-16T15:33:06.022Z,30.03
2023-06-16T15:35:32.635Z,32.60
2023-06-16T15:37:59.150Z,34.30
2023-06-16T15:40:25.888Z,55.63
2023-06-16T15:43:07.638Z,48.03
2023-06-16T15:45:34.212Z,43.37
2023-06-16T15:48:01.032Z,33.97
2023-06-16T15:50:28.400Z,34.10
2023-06-16T15:52:55.029Z,44.37
2023-06-16T15:55:21.892Z,27.77
2023-06-16T15:57:48.389Z,31.47
2023-06-16T16:00:15.263Z,34.53
2023-06-16T16:02:41.947Z,28.80
2023-06-16T16:05:08.588Z,38.17
2023-06-16T16:07:35.174Z,30.03
2023-06-16T16:10:02.148Z,40.90
2023-06-16T16:12:29.955Z,46.30
2023-06-16T16:14:57.548Z,40.30
2023-06-16T16:17:26.239Z,31.77
2023-06-16T16:19:52.773Z,31.63
2023-06-16T16:22:19.300Z,36.97
2023-06-16T16:24:46.648Z,32.87
2023-06-16T16:27:13.362Z,34.50
2023-06-16T16:29:39.894Z,30.03
2023-06-16T16:32:07.855Z,30.83
2023-06-16T16:34:34.583Z,26.80
2023-06-16T16:37:02.059Z,26.60
2023-06-16T16:39:29.201Z,26.93
2023-06-16T16:41:56.656Z,25.03
2023-06-16T16:44:25.175Z,25.33
2023-06-16T16:46:52.525Z,26.43
2023-06-16T16:49:19.449Z,23.63
2023-06-16T16:51:46.052Z,27.83
2023-06-16T16:54:12.600Z,28.60
2023-06-16T16:56:39.079Z,23.43
2023-06-16T16:59:05.637Z,22.80
2023-06-16T17:01:32.272Z,22.67
2023-06-16T17:03:58.786Z,21.07
2023-06-16T17:06:25.408Z,22.77
2023-06-16T17:08:51.928Z,18.27
2023-06-16T17:11:18.458Z,25.17
2023-06-16T17:13:44.969Z,19.83
2023-06-16T17:16:13.827Z,27.23
2023-06-16T17:18:40.414Z,22.10
2023-06-16T17:21:06.917Z,32.97
2023-06-16T17:23:34.139Z,40.03
2023-06-16T17:26:01.886Z,28.03
2023-06-16T17:28:28.512Z,25.10
2023-06-16T17:30:55.105Z,37.73
2023-06-16T17:33:22.099Z,25.00
2023-06-16T17:35:48.996Z,34.40
2023-06-16T17:38:15.669Z,51.87
2023-06-16T17:40:42.191Z,29.83
2023-06-16T17:43:08.710Z,22.30
2023-06-16T17:45:35.193Z,30.77
2023-06-16T17:48:02.118Z,40.10
2023-06-16T17:50:29.387Z,62.93
2023-06-16T17:52:56.825Z,30.27
2023-06-16T17:55:23.462Z,37.00
2023-06-16T17:57:50.007Z,34.97
2023-06-16T18:00:17.200Z,34.17
2023-06-16T18:02:44.243Z,34.93
2023-06-16T18:05:11.164Z,32.30
2023-06-16T18:07:39.169Z,35.53
2023-06-16T18:10:07.125Z,31.57
2023-06-16T18:12:33.711Z,36.73
2023-06-16T18:15:00.278Z,34.87
2023-06-16T18:17:27.097Z,31.20
2023-06-16T18:19:53.676Z,31.20
2023-06-16T18:22:20.532Z,33.00
2023-06-16T18:24:47.056Z,28.03
2023-06-16T18:27:13.653Z,28.67
2023-06-16T18:29:40.739Z,31.63
2023-06-16T18:32:08.391Z,29.07
2023-06-16T18:34:35.107Z,28.80
2023-06-16T18:37:01.734Z,25.67
2023-06-16T18:39:31.112Z,26.53
2023-06-16T18:41:57.608Z,26.50
2023-06-16T18:44:24.141Z,25.17
2023-06-16T18:46:50.742Z,26.27
2023-06-16T18:49:17.264Z,29.20
2023-06-16T18:51:43.878Z,28.70
2023-06-16T18:54:10.540Z,29.20
2023-06-16T18:56:37.486Z,26.53
2023-06-16T18:59:04.441Z,23.47
2023-06-16T19:01:31.015Z,27.13
2023-06-16T19:03:57.795Z,23.73
2023-06-16T19:06:25.632Z,27.27
2023-06-16T19:08:53.022Z,27.43
2023-06-16T19:11:23.098Z,35.97
2023-06-16T19:13:49.793Z,36.10
2023-06-16T19:16:19.360Z,42.87
2023-06-16T19:18:46.700Z,47.67
2023-06-16T19:21:14.394Z,48.63
2023-06-16T19:23:41.261Z,51.13
2023-06-16T19:26:08.010Z,66.10
2023-06-16T19:28:55.849Z,73.93
2023-06-16T19:31:26.894Z,82.33
2023-06-16T19:33:54.029Z,93.60
2023-06-16T19:36:20.688Z,84.57
2023-06-16T19:38:47.407Z,90.10
2023-06-16T19:41:14.155Z,94.67
2023-06-16T19:43:41.665Z,91.97
2023-06-16T19:46:08.414Z,106.53
2023-06-16T19:48:35.033Z,102.00
2023-06-16T19:51:01.846Z,156.80
2023-06-16T19:53:28.998Z,158.27
2023-06-16T19:55:58.198Z,161.17
2023-06-16T19:58:24.834Z,173.83
2023-06-16T20:00:53.641Z,158.73
2023-06-16T20:03:20.566Z,151.60
2023-06-16T20:05:47.144Z,159.83
2023-06-16T20:08:14.583Z,181.17
2023-06-16T20:10:43.659Z,170.73
2023-06-16T20:13:12.413Z,156.40
2023-06-16T20:15:39.210Z,150.97
2023-06-16T20:18:05.866Z,197.00
2023-06-16T20:20:33.594Z,181.47
2023-06-16T20:23:01.629Z,191.37
2023-06-16T20:25:29.138Z,169.07
2023-06-16T20:27:55.730Z,132.83
2023-06-16T20:30:22.524Z,123.57
2023-06-16T20:32:50.718Z,118.47
2023-06-16T20:35:18.741Z,111.53
2023-06-16T20:37:50.564Z,132.73
2023-06-16T20:40:17.524Z,134.23
2023-06-16T20:42:47.680Z,135.73
2023-06-16T20:45:19.219Z,139.20
2023-06-16T20:47:50.788Z,129.53
2023-06-16T20:50:22.502Z,140.80
2023-06-16T20:52:51.465Z,136.13
2023-06-16T20:55:18.918Z,142.30
2023-06-16T20:57:46.004Z,146.77
2023-06-16T21:00:13.735Z,141.57
2023-06-16T21:02:40.660Z,176.97
2023-06-16T21:05:11.117Z,201.10
2023-06-16T21:07:45.203Z,231.10
2023-06-16T21:10:16.732Z,242.00
2023-06-16T21:12:43.691Z,260.63
2023-06-16T21:15:12.280Z,246.70
2023-06-16T21:17:41.990Z,257.37
2023-06-16T21:20:10.498Z,261.27
2023-06-16T21:22:37.950Z,252.73
2023-06-16T21:29:00.917Z,245.90
2023-06-16T21:31:27.438Z,246.17
2023-06-16T21:33:53.949Z,227.13
2023-06-16T21:36:20.551Z,236.80
2023-06-16T21:38:54.526Z,234.87
2023-06-16T21:41:21.192Z,240.07
2023-06-16T21:43:47.708Z,217.47
2023-06-16T21:46:14.326Z,220.07
2023-06-16T21:48:42.233Z,204.97
2023-06-16T21:51:09.037Z,202.10
2023-06-16T21:53:37.122Z,189.43
2023-06-16T21:56:03.911Z,169.03
2023-06-16T21:58:30.511Z,153.00
2023-06-16T22:00:57.028Z,114.07
2023-06-16T22:03:23.644Z,115.27
2023-06-16T22:05:50.437Z,97.47
2023-06-16T22:08:17.068Z,100.60
2023-06-16T22:10:43.748Z,92.70
2023-06-16T22:13:10.370Z,72.23
2023-06-16T22:15:36.913Z,77.37
2023-06-16T22:18:04.650Z,77.30
2023-06-16T22:20:31.307Z,77.60
2023-06-16T22:22:59.734Z,77.20
2023-06-16T22:25:26.612Z,69.47
2023-06-16T22:27:53.333Z,68.80
2023-06-16T22:30:22.098Z,71.03
2023-06-16T22:32:49.762Z,67.10
2023-06-16T22:35:16.472Z,67.93
2023-06-16T22:37:43.001Z,71.30
2023-06-16T22:40:11.202Z,66.00
2023-06-16T22:42:37.745Z,71.33
2023-06-16T22:45:04.517Z,72.10
2023-06-16T22:47:31.107Z,73.73
2023-06-16T22:49:57.750Z,89.40
2023-06-16T22:52:25.280Z,116.17
2023-06-16T22:54:51.967Z,138.67
2023-06-16T22:57:19.325Z,154.70
2023-06-16T22:59:45.893Z,175.57
2023-06-16T23:02:12.420Z,224.63
2023-06-16T23:04:38.979Z,226.43
2023-06-16T23:07:06.288Z,262.07
2023-06-16T23:09:33.017Z,280.17
2023-06-16T23:11:59.572Z,287.33
2023-06-16T23:14:26.141Z,276.40
2023-06-16T23:16:52.723Z,266.50
2023-06-16T23:19:19.232Z,260.70
2023-06-16T23:21:47.044Z,243.73
2023-06-16T23:24:13.674Z,237.03
2023-06-16T23:26:45.842Z,222.43
2023-06-16T23:29:17.281Z,202.03
2023-06-16T23:31:44.130Z,198.97
2023-06-16T23:34:10.902Z,192.03
2023-06-16T23:36:37.540Z,212.17
2023-06-16T23:39:04.281Z,199.03
2023-06-16T23:41:30.990Z,193.73
2023-06-16T23:43:58.115Z,203.47
2023-06-16T23:46:25.149Z,196.93
2023-06-16T23:48:51.968Z,362.27
2023-06-16T23:51:18.502Z,382.47
2023-06-16T23:53:45.523Z,298.07
2023-06-16T23:56:12.015Z,205.47
2023-06-16T23:58:38.585Z,250.17
